ESCO2: Skeleton Creek at Enid, OK

Data processed at Fri Jan 05 2018 23:03


All information presented herein is the property of the government of the United States of America and may be revised or deleted at any time without prior notice.
Dissemination of this information without the expressed written consent of the Public Affairs Office, Tulsa District U.S. Army Corps of Engineers is strictly prohibited.
These data are gathered electronically and, as presented, have not undergone any form of quality control. These data are not guaranteed to be valid or correct.
Go to home page.
Go to station list.

Downstream station:


Previous Day
Next Day
Current Day
    
SHEF ID:       ESCO2     Skeleton Creek at Enid, OK
STATION TYPE:  

               PRECIP     STAGE  RIV-FLOW  WTR-TEMP   CONDUCT  BAT-LOAD
                   in        ft       cfs         F   umho/cm      volt
              Ccp-Rev   Ccp-Rev   Ccp-Rev   Ccp-Rev   Ccp-Rev   Ccp-Rev
(US/Central)
01/03 00:00      0.00      2.57         6     32.02      1704     12.65
01/03 01:00      0.00      2.55         5     32.34      1707     12.65
01/03 02:00      0.00      2.55         5     32.00      1714     12.65
01/03 03:00      0.00      2.54         5     32.00      1719     12.57
01/03 04:00      0.00      2.56         5     32.36      1724     12.57
01/03 05:00      0.00      2.54         5     32.02      1732     12.57
01/03 06:00      0.00      2.53         4     31.93      1743     12.49
01/03 07:00      0.00      2.53         4     31.93      1755     12.49
01/03 08:00      0.00      2.53         4     31.93      1782     12.49
01/03 09:00      0.00      2.53         4     32.04      1792     12.49
01/03 10:00      0.00      2.53         4     32.76      1790     12.73
01/03 11:00      0.00      2.54         5     33.58      1784     13.29
01/03 12:00      0.00      2.58         6     34.09      1764     13.44
01/03 13:00      0.00      2.57         6     34.52      1731     13.44
01/03 14:00      0.00      2.59         6     34.32      1675     13.44
01/03 15:00      0.00      2.58         6     34.12      1632     13.44
01/03 16:00      0.00      2.61         7     33.39      1628     13.53
01/03 17:00      0.00      2.56         5     32.49      1635     13.37
01/03 18:00      0.00      2.56         5     31.98      1644     13.13
01/03 19:00      0.00      2.57         6     32.14      1651     12.97
01/03 20:00      0.00      2.58         6     31.96      1654     12.89
01/03 21:00      0.00      2.62         7     32.59      1654     12.89
01/03 22:00      0.00      2.58         6     32.22      1648     12.81
01/03 23:00      0.00      2.62         7     32.47      1648     12.81